Time;durP1;ratioP1;P1;durP2;ratioP2;P2;SDS_P1;SDS_P2;PMS_P1;PMS_P2;Temp;Humidity;BMP_temperature;BMP_pressure;BME280_temperature;BME280_humidity;BME280_pressure;Samples;Min_cycle;Max_cycle;Signal;HPM_P1;HPM_P2
2023/06/12 00:01:19;;;;;;;5.87;4.37;;;;;;;;;;5058304;28;20412;-72
2023/06/12 00:03:47;;;;;;;5.53;4.70;;;;;;;;;;5058456;28;20420;-72
2023/06/12 00:06:15;;;;;;;4.50;4.10;;;;;;;;;;5057828;28;20907;-72
2023/06/12 00:08:41;;;;;;;4.77;4.13;;;;;;;;;;5058188;28;20923;-72
2023/06/12 00:11:09;;;;;;;4.90;4.50;;;;;;;;;;5058001;28;20473;-72
2023/06/12 00:13:46;;;;;;;8.97;4.57;;;;;;;;;;5056872;28;20935;-72
2023/06/12 00:16:12;;;;;;;5.13;4.30;;;;;;;;;;5058034;28;20741;-72
2023/06/12 00:18:39;;;;;;;7.80;5.40;;;;;;;;;;5058510;28;20408;-72
2023/06/12 00:21:08;;;;;;;5.13;4.63;;;;;;;;;;5057717;28;20416;-72
2023/06/12 00:23:35;;;;;;;5.73;4.80;;;;;;;;;;5058061;28;20494;-72
2023/06/12 00:26:01;;;;;;;5.67;4.60;;;;;;;;;;5057715;28;20407;-72
2023/06/12 00:28:27;;;;;;;4.70;4.10;;;;;;;;;;5057943;28;20411;-72
2023/06/12 00:30:53;;;;;;;8.60;4.50;;;;;;;;;;5057816;28;20392;-71
2023/06/12 00:33:19;;;;;;;5.30;4.50;;;;;;;;;;5057924;28;20463;-72
2023/06/12 00:35:47;;;;;;;5.60;5.03;;;;;;;;;;5057951;28;20389;-72
2023/06/12 00:38:13;;;;;;;5.30;4.80;;;;;;;;;;5057736;28;20442;-72
2023/06/12 00:40:40;;;;;;;5.30;4.63;;;;;;;;;;5057932;28;20408;-72
2023/06/12 00:43:06;;;;;;;6.57;4.60;;;;;;;;;;5057640;28;20943;-72
2023/06/12 00:45:32;;;;;;;5.93;4.73;;;;;;;;;;5057828;28;20400;-72
2023/06/12 00:47:58;;;;;;;7.63;5.00;;;;;;;;;;5057695;28;20952;-72
2023/06/12 00:50:27;;;;;;;6.00;4.80;;;;;;;;;;5057972;28;20757;-72
2023/06/12 00:52:53;;;;;;;5.10;4.47;;;;;;;;;;5057219;28;20444;-72
2023/06/12 00:55:19;;;;;;;5.30;4.80;;;;;;;;;;5057735;28;20403;-71
2023/06/12 00:57:47;;;;;;;5.03;4.50;;;;;;;;;;5057573;28;20948;-71
2023/06/12 01:00:14;;;;;;;5.03;4.37;;;;;;;;;;5056856;28;20412;-71
2023/06/12 01:02:44;;;;;;;4.67;4.10;;;;;;;;;;5057174;28;20416;-71
2023/06/12 01:05:12;;;;;;;4.40;4.00;;;;;;;;;;5057241;28;20408;-71
2023/06/12 01:07:47;;;;;;;4.53;4.13;;;;;;;;;;5057560;28;21026;-71
2023/06/12 01:10:25;;;;;;;6.03;4.73;;;;;;;;;;5057810;28;20411;-71
2023/06/12 01:12:52;;;;;;;5.13;4.63;;;;;;;;;;5057343;28;20482;-71
2023/06/12 01:15:18;;;;;;;4.87;4.37;;;;;;;;;;5058021;28;20759;-71
2023/06/12 01:17:44;;;;;;;7.20;4.73;;;;;;;;;;5057693;28;20523;-71
2023/06/12 01:20:11;;;;;;;5.23;4.80;;;;;;;;;;5057757;28;20494;-71
2023/06/12 01:22:42;;;;;;;8.70;5.13;;;;;;;;;;5057517;28;20404;-71
2023/06/12 01:25:27;;;;;;;7.30;4.83;;;;;;;;;;5057589;28;20396;-71
2023/06/12 01:28:11;;;;;;;6.33;4.47;;;;;;;;;;5057780;28;20408;-71
2023/06/12 01:30:54;;;;;;;5.80;4.80;;;;;;;;;;5057620;28;20771;-71
2023/06/12 01:33:21;;;;;;;6.00;4.80;;;;;;;;;;5057282;28;20475;-71
2023/06/12 01:35:49;;;;;;;4.67;4.27;;;;;;;;;;5057816;28;20426;-72
2023/06/12 01:38:18;;;;;;;5.67;5.07;;;;;;;;;;5057352;28;20467;-72
2023/06/12 01:40:45;;;;;;;5.83;5.30;;;;;;;;;;5057045;28;20420;-72
2023/06/12 01:43:11;;;;;;;7.70;5.00;;;;;;;;;;5057545;28;20423;-72
2023/06/12 01:45:38;;;;;;;6.33;4.80;;;;;;;;;;5057463;28;20408;-71
2023/06/12 01:48:05;;;;;;;5.47;4.53;;;;;;;;;;5057358;28;20420;-72
2023/06/12 01:50:31;;;;;;;8.20;4.80;;;;;;;;;;5057765;28;20409;-72
2023/06/12 01:52:57;;;;;;;6.43;5.30;;;;;;;;;;5057365;28;20404;-72
2023/06/12 01:55:24;;;;;;;6.83;5.13;;;;;;;;;;5057523;28;20908;-72
2023/06/12 01:57:50;;;;;;;6.13;5.53;;;;;;;;;;5056884;28;20439;-71
2023/06/12 02:00:17;;;;;;;5.87;4.60;;;;;;;;;;5057145;28;20494;-71
2023/06/12 02:02:43;;;;;;;5.40;4.90;;;;;;;;;;5057018;28;20424;-71
2023/06/12 02:05:10;;;;;;;6.83;5.23;;;;;;;;;;5056914;28;20391;-71
2023/06/12 02:07:36;;;;;;;6.10;5.60;;;;;;;;;;5057537;28;20434;-71
2023/06/12 02:10:02;;;;;;;5.33;4.83;;;;;;;;;;5056899;28;20731;-72
2023/06/12 02:12:29;;;;;;;7.27;5.30;;;;;;;;;;5056210;28;20397;-71
2023/06/12 02:14:57;;;;;;;5.70;5.07;;;;;;;;;;5056904;28;20562;-72
2023/06/12 02:17:23;;;;;;;5.50;5.00;;;;;;;;;;5057146;28;20554;-72
2023/06/12 02:19:49;;;;;;;4.80;4.17;;;;;;;;;;5057767;28;20497;-72
2023/06/12 02:22:15;;;;;;;5.77;5.10;;;;;;;;;;5057129;28;20405;-72
2023/06/12 02:24:41;;;;;;;10.13;6.07;;;;;;;;;;5055686;28;20398;-72
2023/06/12 02:27:07;;;;;;;7.37;5.10;;;;;;;;;;5056628;28;20499;-72
2023/06/12 02:29:33;;;;;;;5.97;5.03;;;;;;;;;;5056797;28;20486;-72
2023/06/12 02:31:59;;;;;;;6.10;5.10;;;;;;;;;;5057370;28;21045;-71
2023/06/12 02:34:25;;;;;;;8.67;5.73;;;;;;;;;;5056876;28;20408;-71
2023/06/12 02:36:51;;;;;;;7.10;5.90;;;;;;;;;;5056670;28;20459;-71
2023/06/12 02:39:18;;;;;;;5.50;4.80;;;;;;;;;;5057017;28;20432;-71
2023/06/12 02:41:45;;;;;;;7.10;5.93;;;;;;;;;;5055719;28;21042;-71
2023/06/12 02:44:11;;;;;;;7.20;5.63;;;;;;;;;;5056723;28;20853;-72
2023/06/12 02:46:57;;;;;;;6.23;5.63;;;;;;;;;;5056987;28;20414;-71
2023/06/12 02:49:24;;;;;;;6.17;5.17;;;;;;;;;;5056689;28;20412;-72
2023/06/12 02:51:50;;;;;;;8.20;5.57;;;;;;;;;;5057027;28;20884;-71
2023/06/12 02:54:16;;;;;;;7.07;5.57;;;;;;;;;;5056761;28;20401;-71
2023/06/12 02:56:45;;;;;;;6.10;5.50;;;;;;;;;;5057466;28;20480;-71
2023/06/12 02:59:11;;;;;;;6.83;5.40;;;;;;;;;;5056558;28;20834;-72
2023/06/12 03:01:43;;;;;;;7.37;5.10;;;;;;;;;;5056268;28;20420;-71
2023/06/12 03:04:10;;;;;;;8.77;5.93;;;;;;;;;;5055381;28;20415;-72
2023/06/12 03:06:36;;;;;;;6.60;4.77;;;;;;;;;;5055828;28;20873;-72
2023/06/12 03:09:03;;;;;;;6.63;5.60;;;;;;;;;;5056529;28;20930;-72
2023/06/12 03:11:29;;;;;;;6.40;5.80;;;;;;;;;;5056642;28;20375;-72
2023/06/12 03:13:55;;;;;;;6.80;5.50;;;;;;;;;;5056779;28;20408;-72
2023/06/12 03:16:22;;;;;;;6.43;5.73;;;;;;;;;;5056187;28;20415;-72
2023/06/12 03:18:48;;;;;;;6.53;5.60;;;;;;;;;;5056387;28;20420;-72
2023/06/12 03:21:14;;;;;;;6.67;4.93;;;;;;;;;;5055897;28;20415;-72
2023/06/12 03:23:40;;;;;;;7.53;5.23;;;;;;;;;;5056760;28;20379;-72
2023/06/12 03:26:06;;;;;;;7.17;6.00;;;;;;;;;;5056216;28;20379;-72
2023/06/12 03:28:34;;;;;;;5.80;5.30;;;;;;;;;;5056555;28;20424;-71
2023/06/12 03:31:00;;;;;;;11.10;6.80;;;;;;;;;;5056486;28;20442;-71
2023/06/12 03:33:26;;;;;;;7.00;6.30;;;;;;;;;;5056220;28;20910;-72
2023/06/12 03:35:53;;;;;;;5.67;5.17;;;;;;;;;;5056946;28;20422;-71
2023/06/12 03:38:19;;;;;;;7.33;5.50;;;;;;;;;;5056092;28;21009;-71
2023/06/12 03:40:45;;;;;;;8.10;5.20;;;;;;;;;;5056493;28;20371;-71
2023/06/12 03:43:11;;;;;;;6.20;5.37;;;;;;;;;;5056027;28;20389;-71
2023/06/12 03:45:37;;;;;;;9.13;6.43;;;;;;;;;;5056878;28;20408;-71
2023/06/12 03:48:03;;;;;;;10.73;5.87;;;;;;;;;;5056391;28;20386;-71
2023/06/12 03:50:29;;;;;;;6.47;5.50;;;;;;;;;;5056005;28;20412;-71
2023/06/12 03:52:56;;;;;;;8.83;6.60;;;;;;;;;;5056996;28;20466;-71
2023/06/12 03:55:23;;;;;;;8.70;5.53;;;;;;;;;;5056017;28;20878;-71
2023/06/12 03:57:50;;;;;;;6.23;5.60;;;;;;;;;;5056403;28;20617;-71
2023/06/12 04:00:16;;;;;;;6.70;5.80;;;;;;;;;;5055930;28;20390;-72
2023/06/12 04:02:42;;;;;;;6.30;5.30;;;;;;;;;;5056206;28;20497;-71
2023/06/12 04:05:08;;;;;;;6.37;5.77;;;;;;;;;;5056291;28;20387;-72
2023/06/12 04:07:38;;;;;;;7.07;6.37;;;;;;;;;;5056091;28;20483;-72
2023/06/12 04:10:04;;;;;;;7.87;6.07;;;;;;;;;;5056425;28;20387;-71
2023/06/12 04:12:31;;;;;;;9.47;7.07;;;;;;;;;;5055738;28;20454;-72
2023/06/12 04:14:57;;;;;;;9.00;6.20;;;;;;;;;;5056141;28;20892;-71
2023/06/12 04:17:23;;;;;;;10.43;6.80;;;;;;;;;;5055803;28;20426;-71
2023/06/12 04:19:50;;;;;;;6.83;6.13;;;;;;;;;;5056264;28;20412;-71
2023/06/12 04:22:16;;;;;;;10.43;6.03;;;;;;;;;;5056030;28;20439;-72
2023/06/12 04:24:43;;;;;;;7.90;6.27;;;;;;;;;;5056052;28;20415;-72
2023/06/12 04:27:10;;;;;;;6.73;5.10;;;;;;;;;;5055816;28;20394;-72
2023/06/12 04:29:40;;;;;;;9.03;5.63;;;;;;;;;;5055756;28;20400;-71
2023/06/12 04:32:06;;;;;;;8.50;7.60;;;;;;;;;;5055240;28;20503;-71
2023/06/12 04:34:39;;;;;;;9.30;6.60;;;;;;;;;;5056838;28;20438;-71
2023/06/12 04:37:08;;;;;;;6.60;6.00;;;;;;;;;;5059401;28;20554;-71
2023/06/12 04:39:35;;;;;;;7.00;6.30;;;;;;;;;;5059467;28;20418;-72
2023/06/12 04:42:01;;;;;;;8.20;6.30;;;;;;;;;;5059798;28;20391;-71
2023/06/12 04:44:30;;;;;;;8.37;7.50;;;;;;;;;;5059056;28;20879;-72
2023/06/12 04:47:00;;;;;;;9.93;7.23;;;;;;;;;;5059636;28;20398;-71
2023/06/12 04:49:26;;;;;;;7.13;6.43;;;;;;;;;;5059509;28;20383;-71
2023/06/12 04:51:52;;;;;;;7.87;6.70;;;;;;;;;;5059788;28;20382;-71
2023/06/12 04:54:19;;;;;;;7.77;7.03;;;;;;;;;;5059400;28;20450;-71
2023/06/12 04:56:48;;;;;;;7.83;7.10;;;;;;;;;;5059730;28;20455;-71
2023/06/12 04:59:16;;;;;;;7.83;5.90;;;;;;;;;;5059110;28;20412;-72
2023/06/12 05:01:44;;;;;;;7.30;6.60;;;;;;;;;;5059418;28;20945;-71
2023/06/12 05:04:10;;;;;;;7.47;6.77;;;;;;;;;;5059723;28;20422;-73
2023/06/12 05:06:40;;;;;;;7.03;6.30;;;;;;;;;;5059335;28;20904;-71
2023/06/12 05:09:07;;;;;;;8.60;6.77;;;;;;;;;;5058821;28;20400;-71
2023/06/12 05:11:33;;;;;;;7.33;6.63;;;;;;;;;;5058447;28;20382;-72
2023/06/12 05:13:59;;;;;;;9.73;7.00;;;;;;;;;;5058771;28;20408;-71
2023/06/12 05:16:25;;;;;;;10.60;7.20;;;;;;;;;;5058795;28;20911;-72
2023/06/12 05:18:51;;;;;;;8.93;6.53;;;;;;;;;;5058694;28;20437;-71
2023/06/12 05:21:19;;;;;;;9.63;6.10;;;;;;;;;;5058400;28;20904;-71
2023/06/12 05:23:45;;;;;;;8.27;7.07;;;;;;;;;;5058790;28;20416;-71
2023/06/12 05:26:11;;;;;;;8.20;6.70;;;;;;;;;;5058244;28;20400;-71
2023/06/12 05:28:37;;;;;;;7.70;7.00;;;;;;;;;;5058772;28;20393;-72
2023/06/12 05:31:05;;;;;;;7.40;6.50;;;;;;;;;;5058458;28;20881;-72
2023/06/12 05:33:32;;;;;;;7.37;6.60;;;;;;;;;;5058586;28;20381;-72
2023/06/12 05:35:58;;;;;;;8.77;6.70;;;;;;;;;;5058432;28;20439;-71
2023/06/12 05:38:25;;;;;;;8.13;6.63;;;;;;;;;;5057960;28;20446;-71
2023/06/12 05:40:51;;;;;;;7.67;6.73;;;;;;;;;;5058162;28;20387;-71
2023/06/12 05:43:18;;;;;;;8.97;7.50;;;;;;;;;;5058259;28;20444;-72
2023/06/12 05:45:44;;;;;;;11.33;7.47;;;;;;;;;;5057543;28;20436;-72
2023/06/12 05:48:10;;;;;;;11.90;7.37;;;;;;;;;;5058606;28;20538;-71
2023/06/12 05:50:36;;;;;;;12.47;7.00;;;;;;;;;;5057921;28;20907;-71
2023/06/12 05:53:02;;;;;;;7.43;6.60;;;;;;;;;;5058842;28;20439;-72
2023/06/12 05:55:28;;;;;;;8.30;6.50;;;;;;;;;;5057902;28;20567;-72
2023/06/12 05:57:54;;;;;;;7.87;6.00;;;;;;;;;;5058120;28;20480;-72
2023/06/12 06:00:21;;;;;;;8.30;6.70;;;;;;;;;;5057877;28;20408;-72
2023/06/12 06:02:47;;;;;;;7.20;6.40;;;;;;;;;;5057960;28;20481;-72
2023/06/12 06:05:13;;;;;;;10.93;5.90;;;;;;;;;;5057923;28;20407;-72
2023/06/12 06:07:40;;;;;;;5.60;5.00;;;;;;;;;;5057789;28;20498;-72
2023/06/12 06:10:07;;;;;;;10.53;6.70;;;;;;;;;;5057649;28;20383;-72
2023/06/12 06:12:33;;;;;;;6.77;5.60;;;;;;;;;;5057874;28;20412;-72
2023/06/12 06:14:59;;;;;;;7.00;5.47;;;;;;;;;;5058104;28;20913;-72
2023/06/12 06:17:25;;;;;;;7.20;5.47;;;;;;;;;;5057218;28;20437;-72
2023/06/12 06:19:51;;;;;;;5.83;5.23;;;;;;;;;;5057272;28;20439;-72
2023/06/12 06:22:18;;;;;;;8.43;6.17;;;;;;;;;;5056979;28;20408;-72
2023/06/12 06:24:44;;;;;;;8.70;5.83;;;;;;;;;;5057319;28;20415;-72
2023/06/12 06:27:10;;;;;;;8.57;5.73;;;;;;;;;;5057690;28;20442;-72
2023/06/12 06:29:37;;;;;;;11.33;5.77;;;;;;;;;;5057109;28;20453;-72
2023/06/12 06:32:03;;;;;;;5.83;5.30;;;;;;;;;;5057095;28;20539;-72
2023/06/12 06:34:30;;;;;;;5.90;5.30;;;;;;;;;;5056765;28;20454;-72
2023/06/12 06:36:56;;;;;;;7.20;5.53;;;;;;;;;;5057298;28;20467;-72
2023/06/12 06:39:22;;;;;;;8.37;6.07;;;;;;;;;;5056841;28;20423;-72
2023/06/12 06:41:49;;;;;;;8.10;5.90;;;;;;;;;;5057163;28;20447;-72
2023/06/12 06:44:15;;;;;;;7.17;4.83;;;;;;;;;;5057260;28;20419;-72
2023/06/12 06:46:41;;;;;;;9.00;6.10;;;;;;;;;;5057117;28;20411;-72
2023/06/12 06:49:07;;;;;;;7.67;5.70;;;;;;;;;;5056930;28;20415;-72
2023/06/12 06:51:34;;;;;;;11.73;6.13;;;;;;;;;;5056470;28;20876;-72
2023/06/12 06:54:00;;;;;;;6.77;5.47;;;;;;;;;;5056982;28;20777;-72
2023/06/12 06:56:26;;;;;;;8.67;5.27;;;;;;;;;;5056496;28;20404;-72
2023/06/12 06:58:52;;;;;;;9.63;5.73;;;;;;;;;;5056514;28;20434;-72
2023/06/12 07:01:18;;;;;;;8.87;6.20;;;;;;;;;;5056478;28;20416;-73
2023/06/12 07:03:44;;;;;;;5.73;5.10;;;;;;;;;;5056547;28;20487;-72
2023/06/12 07:06:10;;;;;;;7.37;6.30;;;;;;;;;;5055876;28;20423;-72
2023/06/12 07:08:36;;;;;;;6.37;5.50;;;;;;;;;;5056495;28;20408;-72
2023/06/12 07:11:02;;;;;;;7.80;5.60;;;;;;;;;;5056396;28;20412;-72
2023/06/12 07:13:28;;;;;;;6.90;6.00;;;;;;;;;;5055831;28;20403;-73
2023/06/12 07:15:54;;;;;;;6.60;5.17;;;;;;;;;;5056428;28;20401;-72
2023/06/12 07:18:20;;;;;;;10.07;5.47;;;;;;;;;;5055682;28;20467;-73
2023/06/12 07:20:46;;;;;;;7.50;5.60;;;;;;;;;;5055448;28;20443;-72
2023/06/12 07:23:12;;;;;;;8.60;5.10;;;;;;;;;;5055713;28;20450;-72
2023/06/12 07:25:38;;;;;;;11.97;5.50;;;;;;;;;;5055940;28;20396;-72
2023/06/12 07:28:04;;;;;;;10.70;6.20;;;;;;;;;;5056063;28;20748;-72
2023/06/12 07:30:30;;;;;;;6.63;5.87;;;;;;;;;;5055986;28;20782;-72
2023/06/12 07:32:56;;;;;;;6.53;5.80;;;;;;;;;;5055085;28;20524;-72
2023/06/12 07:35:22;;;;;;;7.10;5.97;;;;;;;;;;5055450;28;20930;-72
2023/06/12 07:37:49;;;;;;;11.23;5.97;;;;;;;;;;5055744;28;20509;-72
2023/06/12 07:40:16;;;;;;;6.80;5.70;;;;;;;;;;5056003;28;20420;-72
2023/06/12 07:42:45;;;;;;;8.10;5.73;;;;;;;;;;5055603;28;20896;-72
2023/06/12 07:45:11;;;;;;;6.37;5.20;;;;;;;;;;5055826;28;20461;-72
2023/06/12 07:47:37;;;;;;;7.67;5.60;;;;;;;;;;5055416;28;20408;-72
2023/06/12 07:50:04;;;;;;;6.17;5.57;;;;;;;;;;5055313;28;20396;-72
2023/06/12 07:52:30;;;;;;;6.60;5.30;;;;;;;;;;5055143;28;20570;-72
2023/06/12 07:54:57;;;;;;;6.23;5.57;;;;;;;;;;5055794;28;20422;-72
2023/06/12 07:57:23;;;;;;;6.70;5.97;;;;;;;;;;5055116;28;20459;-73
2023/06/12 07:59:50;;;;;;;7.00;6.00;;;;;;;;;;5055787;28;20415;-72
2023/06/12 08:02:16;;;;;;;6.90;5.67;;;;;;;;;;5055373;28;20438;-72
2023/06/12 08:04:42;;;;;;;8.20;5.80;;;;;;;;;;5055336;28;20885;-72
2023/06/12 08:07:11;;;;;;;5.73;5.23;;;;;;;;;;5054417;28;20990;-72
2023/06/12 08:09:39;;;;;;;7.30;5.40;;;;;;;;;;5056189;28;20503;-72
2023/06/12 08:12:05;;;;;;;6.00;5.40;;;;;;;;;;5058749;28;20457;-72
2023/06/12 08:14:31;;;;;;;6.67;5.03;;;;;;;;;;5058353;28;20935;-73
2023/06/12 08:16:58;;;;;;;8.30;5.50;;;;;;;;;;5058677;28;20459;-73
2023/06/12 08:19:26;;;;;;;5.63;5.00;;;;;;;;;;5058006;28;20411;-73
2023/06/12 08:21:52;;;;;;;6.60;4.90;;;;;;;;;;5058764;28;20408;-72
2023/06/12 08:24:18;;;;;;;6.80;5.23;;;;;;;;;;5057027;28;20420;-72
2023/06/12 08:26:45;;;;;;;7.30;5.20;;;;;;;;;;5057600;28;20510;-73
2023/06/12 08:29:12;;;;;;;5.40;4.90;;;;;;;;;;5058290;28;20412;-73
2023/06/12 08:31:40;;;;;;;8.53;5.13;;;;;;;;;;5057503;28;20550;-73
2023/06/12 08:34:06;;;;;;;10.50;5.30;;;;;;;;;;5058644;28;20416;-73
2023/06/12 08:36:35;;;;;;;10.43;6.07;;;;;;;;;;5057444;28;20415;-73
2023/06/12 08:39:01;;;;;;;8.20;5.70;;;;;;;;;;5057797;28;20430;-73
2023/06/12 08:41:28;;;;;;;6.00;5.30;;;;;;;;;;5057615;28;20404;-73
2023/06/12 08:43:56;;;;;;;7.87;4.90;;;;;;;;;;5057625;28;20487;-73
2023/06/12 08:46:22;;;;;;;5.63;5.10;;;;;;;;;;5057945;28;20404;-72
2023/06/12 08:48:48;;;;;;;6.40;5.13;;;;;;;;;;5057336;28;20814;-73
2023/06/12 08:51:15;;;;;;;5.93;5.23;;;;;;;;;;5057600;28;20428;-72
2023/06/12 08:53:42;;;;;;;7.47;5.70;;;;;;;;;;5057305;28;20495;-73
2023/06/12 08:56:08;;;;;;;6.10;4.97;;;;;;;;;;5057065;28;20416;-73
2023/06/12 08:58:34;;;;;;;5.87;5.23;;;;;;;;;;5056766;28;20606;-72
2023/06/12 09:01:01;;;;;;;6.27;4.73;;;;;;;;;;5056709;28;20404;-72
2023/06/12 09:03:27;;;;;;;6.40;5.23;;;;;;;;;;5056618;28;20412;-73
2023/06/12 09:05:53;;;;;;;6.30;4.90;;;;;;;;;;5056625;28;20419;-73
2023/06/12 09:08:19;;;;;;;5.80;5.30;;;;;;;;;;5057025;28;20415;-73
2023/06/12 09:10:45;;;;;;;6.67;4.97;;;;;;;;;;5056289;28;20535;-73
2023/06/12 09:13:11;;;;;;;6.20;5.60;;;;;;;;;;5056244;28;20440;-73
2023/06/12 09:15:38;;;;;;;5.33;4.83;;;;;;;;;;5056240;28;20408;-73
2023/06/12 09:18:08;;;;;;;8.90;4.80;;;;;;;;;;5056148;28;20485;-73
2023/06/12 09:20:36;;;;;;;10.40;5.00;;;;;;;;;;5055581;28;20405;-73
2023/06/12 09:23:02;;;;;;;5.30;4.87;;;;;;;;;;5056313;28;20503;-73
2023/06/12 09:25:34;;;;;;;5.73;4.67;;;;;;;;;;5055409;28;20436;-73
2023/06/12 09:28:03;;;;;;;6.37;4.97;;;;;;;;;;5055656;28;20435;-73
2023/06/12 09:36:50;;;;;;;5.60;5.10;;;;;;;;;;5046411;28;20531;-73
2023/06/12 09:39:23;;;;;;;5.30;4.80;;;;;;;;;;5055340;28;20439;-73
2023/06/12 09:41:50;;;;;;;6.37;4.80;;;;;;;;;;5054865;28;20400;-73
2023/06/12 09:44:22;;;;;;;6.37;4.90;;;;;;;;;;5054918;28;20452;-73
2023/06/12 09:46:49;;;;;;;5.63;4.63;;;;;;;;;;5054799;28;20412;-73
2023/06/12 09:49:15;;;;;;;4.97;4.57;;;;;;;;;;5055153;28;20455;-73
2023/06/12 09:51:43;;;;;;;7.13;5.10;;;;;;;;;;5054762;28;20404;-73
2023/06/12 09:54:11;;;;;;;7.83;4.60;;;;;;;;;;5054897;28;20447;-73
2023/06/12 09:56:39;;;;;;;5.40;4.90;;;;;;;;;;5054659;28;20472;-73
2023/06/12 09:59:07;;;;;;;4.60;4.20;;;;;;;;;;5054651;28;20396;-73
2023/06/12 10:01:39;;;;;;;5.37;4.70;;;;;;;;;;5054504;28;20453;-73
2023/06/12 10:04:10;;;;;;;6.30;5.60;;;;;;;;;;5054733;28;20465;-73
2023/06/12 10:06:39;;;;;;;5.17;4.60;;;;;;;;;;5054351;28;20755;-73
2023/06/12 10:09:06;;;;;;;6.63;5.13;;;;;;;;;;5054436;28;20392;-73
2023/06/12 10:11:33;;;;;;;7.83;4.60;;;;;;;;;;5053873;28;20784;-73
2023/06/12 10:13:59;;;;;;;4.10;3.80;;;;;;;;;;5053979;28;20423;-73
2023/06/12 10:16:25;;;;;;;6.27;4.97;;;;;;;;;;5053237;28;20747;-73
2023/06/12 10:18:51;;;;;;;6.10;4.67;;;;;;;;;;5054055;28;20459;-73
2023/06/12 10:21:20;;;;;;;4.73;4.33;;;;;;;;;;5054148;28;20424;-73
2023/06/12 10:23:47;;;;;;;5.60;5.20;;;;;;;;;;5053902;28;20491;-73
2023/06/12 10:26:14;;;;;;;6.73;4.80;;;;;;;;;;5054135;28;20491;-73
2023/06/12 10:28:40;;;;;;;6.27;4.70;;;;;;;;;;5053936;28;20500;-73
2023/06/12 10:31:13;;;;;;;4.77;4.37;;;;;;;;;;5054011;28;20462;-73
2023/06/12 10:33:56;;;;;;;4.70;4.30;;;;;;;;;;5053147;28;20511;-73
2023/06/12 10:36:22;;;;;;;5.10;4.70;;;;;;;;;;5053846;28;20498;-73
2023/06/12 10:38:48;;;;;;;5.00;4.60;;;;;;;;;;5053785;28;20467;-73
2023/06/12 10:41:30;;;;;;;4.37;3.97;;;;;;;;;;5053923;28;20424;-73
2023/06/12 10:43:56;;;;;;;4.87;4.47;;;;;;;;;;5053675;28;20514;-73
2023/06/12 10:46:22;;;;;;;8.73;4.23;;;;;;;;;;5053775;28;20548;-72
2023/06/12 10:48:48;;;;;;;5.53;4.90;;;;;;;;;;5054213;28;20469;-73
2023/06/12 10:51:14;;;;;;;5.50;5.00;;;;;;;;;;5053421;28;20888;-73
2023/06/12 10:53:46;;;;;;;5.40;4.90;;;;;;;;;;5053414;28;20752;-73
2023/06/12 10:56:12;;;;;;;5.03;4.53;;;;;;;;;;5053309;28;20419;-73
2023/06/12 10:58:42;;;;;;;4.40;4.00;;;;;;;;;;5053145;28;20460;-73
2023/06/12 11:01:10;;;;;;;4.90;4.50;;;;;;;;;;5053455;28;20466;-73
2023/06/12 11:03:38;;;;;;;5.50;5.00;;;;;;;;;;5052970;28;20453;-74
2023/06/12 11:06:13;;;;;;;5.27;4.83;;;;;;;;;;5053463;28;20401;-73
2023/06/12 11:08:40;;;;;;;5.67;4.67;;;;;;;;;;5053263;28;20541;-74
2023/06/12 11:11:07;;;;;;;6.10;5.00;;;;;;;;;;5053272;28;20411;-73
2023/06/12 11:13:33;;;;;;;4.83;4.43;;;;;;;;;;5052854;28;20782;-74
2023/06/12 11:15:59;;;;;;;5.20;4.70;;;;;;;;;;5053198;28;20435;-73
2023/06/12 11:18:25;;;;;;;6.67;4.43;;;;;;;;;;5052866;28;20585;-73
2023/06/12 11:20:55;;;;;;;4.77;4.37;;;;;;;;;;5052776;28;20401;-73
2023/06/12 11:23:23;;;;;;;5.10;4.70;;;;;;;;;;5053100;28;20423;-73
2023/06/12 11:25:49;;;;;;;6.00;4.97;;;;;;;;;;5052812;28;20776;-73
2023/06/12 11:28:15;;;;;;;4.47;4.17;;;;;;;;;;5052981;28;20485;-73
2023/06/12 11:30:46;;;;;;;5.40;4.70;;;;;;;;;;5052936;28;20411;-74
2023/06/12 11:33:17;;;;;;;4.50;4.10;;;;;;;;;;5053360;28;20781;-74
2023/06/12 11:35:44;;;;;;;5.03;4.47;;;;;;;;;;5052573;28;20471;-74
2023/06/12 11:38:13;;;;;;;5.20;4.80;;;;;;;;;;5053297;28;20448;-73
2023/06/12 11:40:40;;;;;;;7.07;5.53;;;;;;;;;;5052630;28;20485;-74
2023/06/12 11:43:06;;;;;;;5.70;4.53;;;;;;;;;;5052639;28;20448;-74
2023/06/12 11:45:32;;;;;;;5.17;4.73;;;;;;;;;;5055763;28;20899;-73
2023/06/12 11:48:02;;;;;;;5.00;4.37;;;;;;;;;;5056838;28;20407;-73
2023/06/12 11:50:28;;;;;;;4.90;4.50;;;;;;;;;;5056717;28;20805;-73
2023/06/12 11:52:55;;;;;;;4.47;4.10;;;;;;;;;;5056638;28;20410;-73
2023/06/12 11:55:22;;;;;;;5.00;4.60;;;;;;;;;;5056903;28;20415;-73
2023/06/12 11:57:49;;;;;;;4.97;4.57;;;;;;;;;;5056329;28;20460;-73
2023/06/12 12:00:20;;;;;;;4.67;4.37;;;;;;;;;;5057112;28;20415;-73
2023/06/12 12:02:49;;;;;;;5.07;4.67;;;;;;;;;;5055366;28;20765;-73
2023/06/12 12:05:18;;;;;;;7.57;4.83;;;;;;;;;;5056953;28;20746;-73
2023/06/12 12:07:48;;;;;;;5.63;4.43;;;;;;;;;;5056375;28;20403;-73
2023/06/12 12:10:14;;;;;;;4.67;4.37;;;;;;;;;;5056482;28;20888;-74
2023/06/12 12:12:44;;;;;;;5.60;5.10;;;;;;;;;;5055007;28;20888;-73
2023/06/12 12:15:14;;;;;;;4.90;4.50;;;;;;;;;;5056497;28;20766;-73
2023/06/12 12:17:41;;;;;;;5.50;4.53;;;;;;;;;;5056289;28;20502;-74
2023/06/12 12:20:13;;;;;;;5.30;4.80;;;;;;;;;;5056267;28;20457;-74
2023/06/12 12:22:40;;;;;;;6.53;5.00;;;;;;;;;;5056218;28;20495;-74
2023/06/12 12:25:07;;;;;;;4.50;4.10;;;;;;;;;;5056284;28;20776;-74
2023/06/12 12:27:34;;;;;;;4.10;3.80;;;;;;;;;;5056334;28;20457;-74
2023/06/12 12:30:00;;;;;;;6.63;4.20;;;;;;;;;;5056003;28;20408;-74
2023/06/12 12:32:26;;;;;;;4.97;4.47;;;;;;;;;;5056204;28;20407;-73
2023/06/12 12:34:52;;;;;;;5.33;4.80;;;;;;;;;;5055950;28;20419;-74
2023/06/12 12:37:18;;;;;;;5.20;4.80;;;;;;;;;;5055717;28;20484;-74
2023/06/12 12:39:44;;;;;;;5.10;4.60;;;;;;;;;;5055679;28;20396;-74
2023/06/12 12:42:10;;;;;;;6.97;5.47;;;;;;;;;;5056053;28;20408;-74
2023/06/12 12:44:36;;;;;;;5.73;5.00;;;;;;;;;;5056041;28;20412;-74
2023/06/12 12:47:02;;;;;;;5.17;4.70;;;;;;;;;;5054449;28;20981;-74
2023/06/12 12:49:28;;;;;;;5.30;4.90;;;;;;;;;;5056056;28;20421;-74
2023/06/12 12:51:54;;;;;;;5.80;5.30;;;;;;;;;;5055482;28;20901;-74
2023/06/12 12:54:20;;;;;;;5.20;4.67;;;;;;;;;;5054618;28;20420;-74
2023/06/12 12:56:47;;;;;;;4.10;3.80;;;;;;;;;;5054964;28;20408;-74
2023/06/12 12:59:13;;;;;;;4.87;4.47;;;;;;;;;;5055931;28;20404;-74
2023/06/12 13:01:39;;;;;;;4.73;4.27;;;;;;;;;;5055671;28;20404;-76
2023/06/12 13:04:05;;;;;;;7.13;5.27;;;;;;;;;;5055929;28;20407;-74
2023/06/12 13:06:32;;;;;;;4.73;4.30;;;;;;;;;;5055371;28;20408;-74
2023/06/12 13:08:58;;;;;;;6.73;4.83;;;;;;;;;;5055331;28;20396;-74
2023/06/12 13:11:24;;;;;;;4.40;4.00;;;;;;;;;;5055340;28;20960;-74
2023/06/12 13:13:51;;;;;;;5.47;4.90;;;;;;;;;;5055163;28;20783;-74
2023/06/12 13:16:17;;;;;;;4.57;4.17;;;;;;;;;;5055272;28;20411;-74
2023/06/12 13:18:44;;;;;;;8.70;4.90;;;;;;;;;;5055102;28;20471;-74
2023/06/12 13:21:11;;;;;;;5.13;4.80;;;;;;;;;;5054976;28;20408;-73
2023/06/12 13:23:37;;;;;;;5.20;4.70;;;;;;;;;;5055302;28;20444;-74
2023/06/12 13:26:03;;;;;;;5.40;5.00;;;;;;;;;;5055053;28;20761;-74
2023/06/12 13:28:29;;;;;;;5.23;4.77;;;;;;;;;;5055209;28;20409;-74
2023/06/12 13:30:55;;;;;;;5.47;5.00;;;;;;;;;;5054993;28;20892;-74
2023/06/12 13:33:21;;;;;;;10.33;5.20;;;;;;;;;;5054991;28;20410;-74
2023/06/12 13:35:47;;;;;;;6.10;4.50;;;;;;;;;;5054511;28;20457;-74
2023/06/12 13:38:13;;;;;;;5.60;5.17;;;;;;;;;;5055054;28;20462;-74
2023/06/12 13:40:39;;;;;;;5.53;5.13;;;;;;;;;;5053924;28;20407;-74
2023/06/12 13:43:06;;;;;;;5.97;5.07;;;;;;;;;;5054498;28;20473;-73
2023/06/12 13:45:32;;;;;;;6.10;5.40;;;;;;;;;;5054630;28;20404;-74
2023/06/12 13:47:58;;;;;;;8.20;6.13;;;;;;;;;;5054370;28;20494;-74
2023/06/12 13:50:24;;;;;;;4.93;4.63;;;;;;;;;;5054478;28;20406;-74
2023/06/12 13:52:51;;;;;;;6.07;5.57;;;;;;;;;;5054452;28;20404;-74
2023/06/12 13:55:17;;;;;;;5.17;4.87;;;;;;;;;;5054599;28;20408;-73
2023/06/12 13:57:44;;;;;;;5.70;5.20;;;;;;;;;;5054271;28;20463;-74
2023/06/12 14:00:11;;;;;;;5.30;4.80;;;;;;;;;;5054423;28;20403;-74
2023/06/12 14:02:37;;;;;;;5.43;5.03;;;;;;;;;;5054398;28;20424;-74
2023/06/12 14:05:04;;;;;;;5.43;4.83;;;;;;;;;;5054122;28;20431;-73
2023/06/12 14:07:30;;;;;;;5.23;4.83;;;;;;;;;;5053480;28;20511;-73
2023/06/12 14:09:56;;;;;;;4.80;4.40;;;;;;;;;;5053995;28;20526;-74
2023/06/12 14:12:23;;;;;;;5.20;4.77;;;;;;;;;;5054405;28;20448;-74
2023/06/12 14:14:49;;;;;;;8.87;4.97;;;;;;;;;;5054204;28;20825;-74
2023/06/12 14:17:15;;;;;;;6.07;5.40;;;;;;;;;;5054009;28;20559;-74
2023/06/12 14:19:41;;;;;;;7.33;4.60;;;;;;;;;;5054372;28;20403;-74
2023/06/12 14:22:07;;;;;;;8.10;5.27;;;;;;;;;;5053888;28;20435;-74
2023/06/12 14:24:33;;;;;;;11.03;5.10;;;;;;;;;;5054071;28;20407;-74
2023/06/12 14:27:00;;;;;;;6.20;5.50;;;;;;;;;;5053783;28;20400;-73
2023/06/12 14:29:26;;;;;;;5.87;5.37;;;;;;;;;;5054149;28;20411;-73
2023/06/12 14:31:52;;;;;;;7.43;5.40;;;;;;;;;;5053617;28;20400;-73
2023/06/12 14:34:19;;;;;;;5.90;4.70;;;;;;;;;;5054114;28;20404;-73
2023/06/12 14:36:45;;;;;;;7.10;5.20;;;;;;;;;;5053628;28;20546;-74
2023/06/12 14:39:12;;;;;;;6.90;4.90;;;;;;;;;;5053848;28;20467;-72
2023/06/12 14:41:38;;;;;;;6.63;4.63;;;;;;;;;;5053528;28;20408;-72
2023/06/12 14:44:04;;;;;;;6.17;5.40;;;;;;;;;;5053453;28;20428;-72
2023/06/12 14:46:30;;;;;;;5.80;5.37;;;;;;;;;;5052252;28;20466;-72
2023/06/12 14:48:56;;;;;;;5.50;5.00;;;;;;;;;;5053472;28;20557;-72